Time,TemperatureF,DewpointF,PressureIn,WindDirection,WindDirectionDegrees,WindSpeedMPH,WindSpeedGustMPH,Humidity,HourlyPrecipIn,Conditions,Clouds,dailyrainin,SoftwareType,DateUTC
2013-02-03 00:00:00,19.3,14.6,30.05,West,270,9.4,9.4,82,0.00,,,0.00,WUHU216HW,2013-02-03 05:00:00,
2013-02-03 00:03:00,19.3,14.6,30.05,West,270,11.9,12.5,82,0.00,,,0.00,WUHU216HW,2013-02-03 05:03:00,
2013-02-03 00:08:00,18.9,14.2,30.05,WNW,293,4.7,12.5,82,0.00,,,0.00,WUHU216HW,2013-02-03 05:08:00,
2013-02-03 00:13:00,18.7,14.0,30.05,WNW,293,4.9,11.0,82,0.00,,,0.00,WUHU216HW,2013-02-03 05:13:00,
2013-02-03 00:18:00,18.7,14.0,30.05,North,0,4.7,9.2,82,0.00,,,0.00,WUHU216HW,2013-02-03 05:18:00,
2013-02-03 00:23:00,18.5,13.9,30.05,WNW,293,6.9,6.9,82,0.00,,,0.00,WUHU216HW,2013-02-03 05:23:00,
2013-02-03 00:28:00,18.5,13.9,30.05,WNW,293,4.7,6.9,82,0.00,,,0.00,WUHU216HW,2013-02-03 05:28:00,
2013-02-03 00:33:00,18.4,13.7,30.04,NNW,338,4.3,6.7,82,0.00,,,0.00,WUHU216HW,2013-02-03 05:33:00,
2013-02-03 00:38:00,18.2,13.2,30.04,WNW,293,5.4,6.7,81,0.00,,,0.00,WUHU216HW,2013-02-03 05:38:00,
2013-02-03 00:43:00,18.2,13.2,30.04,NNW,338,1.8,5.4,81,0.00,,,0.00,WUHU216HW,2013-02-03 05:43:00,
2013-02-03 00:48:00,18.0,13.1,30.04,WNW,293,3.4,6.3,81,0.00,,,0.00,WUHU216HW,2013-02-03 05:48:00,
2013-02-03 00:53:00,17.8,12.6,30.04,NW,315,5.1,9.8,80,0.00,,,0.00,WUHU216HW,2013-02-03 05:53:00,
2013-02-03 00:58:00,17.6,12.7,30.03,West,270,7.6,9.8,81,0.00,,,0.00,WUHU216HW,2013-02-03 05:58:00,
2013-02-03 01:03:00,17.6,12.4,30.03,NW,315,4.5,11.2,80,0.00,,,0.00,WUHU216HW,2013-02-03 06:03:00,
2013-02-03 01:08:00,17.5,12.5,30.03,NNW,338,4.7,11.2,81,0.00,,,0.00,WUHU216HW,2013-02-03 06:08:00,
2013-02-03 01:13:00,17.3,12.3,30.02,WSW,248,1.8,11.4,81,0.00,,,0.00,WUHU216HW,2013-02-03 06:13:00,
2013-02-03 01:18:00,17.1,12.0,30.02,West,270,5.1,11.4,80,0.00,,,0.00,WUHU216HW,2013-02-03 06:18:00,
2013-02-03 01:23:00,16.9,11.8,30.02,West,270,4.7,7.2,80,0.00,,,0.00,WUHU216HW,2013-02-03 06:23:00,
2013-02-03 01:28:00,16.9,11.8,30.02,West,270,7.6,9.8,80,0.00,,,0.00,WUHU216HW,2013-02-03 06:28:00,
2013-02-03 01:33:00,16.7,11.6,30.02,SW,225,2.5,9.8,80,0.00,,,0.00,WUHU216HW,2013-02-03 06:33:00,
2013-02-03 01:38:00,16.6,11.4,30.02,NW,315,5.6,8.5,80,0.00,,,0.00,WUHU216HW,2013-02-03 06:38:00,
2013-02-03 01:43:00,16.4,11.0,30.01,NNW,338,4.7,6.3,79,0.00,,,0.00,WUHU216HW,2013-02-03 06:43:00,
2013-02-03 01:48:00,16.2,11.2,30.02,West,270,5.1,6.3,80,0.00,,,0.00,WUHU216HW,2013-02-03 06:48:00,
2013-02-03 01:53:00,16.2,10.8,30.01,WNW,293,1.3,7.6,79,0.00,,,0.00,WUHU216HW,2013-02-03 06:53:00,
2013-02-03 01:58:00,16.0,10.6,30.01,WNW,293,2.9,7.6,79,0.00,,,0.00,WUHU216HW,2013-02-03 06:58:00,
2013-02-03 02:03:00,15.8,10.8,30.01,NNW,338,2.9,8.1,80,0.00,,,0.00,WUHU216HW,2013-02-03 07:03:00,
2013-02-03 02:08:00,15.7,10.4,30.01,WNW,293,4.0,8.1,79,0.00,,,0.00,WUHU216HW,2013-02-03 07:08:00,
2013-02-03 02:12:00,15.5,10.2,30.01,West,270,4.0,4.5,79,0.00,,,0.00,WUHU216HW,2013-02-03 07:12:00,
2013-02-03 02:17:00,15.3,10.3,30.01,WNW,293,2.9,6.3,80,0.00,,,0.00,WUHU216HW,2013-02-03 07:17:00,
2013-02-03 02:22:00,15.1,10.1,30.01,NW,315,0.0,6.3,80,0.00,,,0.00,WUHU216HW,2013-02-03 07:22:00,
2013-02-03 02:27:00,15.1,10.1,30.00,NNW,338,1.1,4.3,80,0.00,,,0.00,WUHU216HW,2013-02-03 07:27:00,
2013-02-03 02:32:00,14.9,9.9,30.00,SW,225,4.7,4.9,80,0.00,,,0.00,WUHU216HW,2013-02-03 07:32:00,
2013-02-03 02:37:00,14.9,9.9,30.01,WNW,293,4.0,6.3,80,0.00,,,0.00,WUHU216HW,2013-02-03 07:37:00,
2013-02-03 02:42:00,15.1,9.8,30.00,North,0,4.3,6.3,79,0.00,,,0.00,WUHU216HW,2013-02-03 07:42:00,
2013-02-03 02:47:00,15.1,9.8,30.01,WNW,293,2.2,6.3,79,0.00,,,0.00,WUHU216HW,2013-02-03 07:47:00,
2013-02-03 02:52:00,14.9,9.0,30.01,West,270,3.4,8.5,77,0.00,,,0.00,WUHU216HW,2013-02-03 07:52:00,
2013-02-03 02:57:00,14.8,8.6,30.00,WNW,293,5.8,8.9,76,0.00,,,0.00,WUHU216HW,2013-02-03 07:57:00,
2013-02-03 03:02:00,14.8,8.8,30.00,SSW,203,4.5,8.9,77,0.00,,,0.00,WUHU216HW,2013-02-03 08:02:00,
2013-02-03 03:07:00,14.4,8.5,30.00,NW,315,6.3,7.4,77,0.00,,,0.00,WUHU216HW,2013-02-03 08:07:00,
2013-02-03 03:12:00,14.4,8.5,30.00,WNW,293,3.6,6.3,77,0.00,,,0.00,WUHU216HW,2013-02-03 08:12:00,
2013-02-03 03:17:00,14.2,8.3,30.00,NNW,338,1.1,4.3,77,0.00,,,0.00,WUHU216HW,2013-02-03 08:17:00,
2013-02-03 03:22:00,14.0,8.1,30.00,West,270,2.5,3.4,77,0.00,,,0.00,WUHU216HW,2013-02-03 08:22:00,
2013-02-03 03:27:00,14.0,8.5,30.00,WNW,293,4.5,4.5,78,0.00,,,0.00,WUHU216HW,2013-02-03 08:27:00,
2013-02-03 03:32:00,13.9,8.3,30.00,NW,315,0.4,4.5,78,0.00,,,0.00,WUHU216HW,2013-02-03 08:32:00,
2013-02-03 03:37:00,13.9,8.3,30.00,NW,315,0.4,3.4,78,0.00,,,0.00,WUHU216HW,2013-02-03 08:37:00,
2013-02-03 03:42:00,13.7,8.1,29.99,WNW,293,3.8,4.5,78,0.00,,,0.00,WUHU216HW,2013-02-03 08:42:00,
2013-02-03 03:47:00,13.5,8.2,29.99,WNW,293,2.5,5.6,79,0.00,,,0.00,WUHU216HW,2013-02-03 08:47:00,
2013-02-03 03:52:00,13.3,8.0,29.99,WNW,293,3.4,5.6,79,0.00,,,0.00,WUHU216HW,2013-02-03 08:52:00,
2013-02-03 03:57:00,13.3,8.0,29.99,WNW,293,2.2,3.4,79,0.00,,,0.00,WUHU216HW,2013-02-03 08:57:00,
2013-02-03 04:02:00,13.1,7.8,29.98,NNW,338,0.0,4.0,79,0.00,,,0.00,WUHU216HW,2013-02-03 09:02:00,
2013-02-03 04:07:00,13.0,7.7,29.98,WNW,293,1.8,4.0,79,0.00,,,0.00,WUHU216HW,2013-02-03 09:07:00,
2013-02-03 04:12:00,13.0,7.7,29.99,WNW,293,3.6,5.6,79,0.00,,,0.00,WUHU216HW,2013-02-03 09:12:00,
2013-02-03 04:17:00,13.0,7.9,29.98,WNW,293,4.0,5.6,80,0.00,,,0.00,WUHU216HW,2013-02-03 09:17:00,
2013-02-03 04:22:00,12.8,7.7,29.98,West,270,3.1,4.0,80,0.00,,,0.00,WUHU216HW,2013-02-03 09:22:00,
2013-02-03 04:27:00,12.8,7.7,29.98,NW,315,1.3,3.6,80,0.00,,,0.00,WUHU216HW,2013-02-03 09:27:00,
2013-02-03 04:32:00,12.6,7.6,29.98,WNW,293,2.7,3.6,80,0.00,,,0.00,WUHU216HW,2013-02-03 09:32:00,
2013-02-03 04:37:00,12.6,7.8,29.98,WNW,293,7.4,7.4,81,0.00,,,0.00,WUHU216HW,2013-02-03 09:37:00,
2013-02-03 04:42:00,12.6,7.8,29.98,West,270,7.2,7.4,81,0.00,,,0.00,WUHU216HW,2013-02-03 09:42:00,
2013-02-03 04:47:00,12.8,8.0,29.97,WNW,293,0.7,7.2,81,0.00,,,0.00,WUHU216HW,2013-02-03 09:47:00,
2013-02-03 04:52:00,12.8,8.0,29.97,NW,315,0.2,3.4,81,0.00,,,0.00,WUHU216HW,2013-02-03 09:52:00,
2013-02-03 04:57:00,13.0,8.2,29.97,WNW,293,2.9,2.9,81,0.00,,,0.00,WUHU216HW,2013-02-03 09:57:00,
2013-02-03 05:02:00,13.1,8.4,29.97,NW,315,0.7,3.6,81,0.00,,,0.00,WUHU216HW,2013-02-03 10:02:00,
2013-02-03 05:07:00,13.3,8.6,29.97,NNW,338,2.7,5.8,81,0.00,,,0.00,WUHU216HW,2013-02-03 10:07:00,
2013-02-03 05:12:00,13.3,8.6,29.97,NNW,338,1.8,5.8,81,0.00,,,0.00,WUHU216HW,2013-02-03 10:12:00,
2013-02-03 05:17:00,13.5,8.7,29.96,NW,315,3.4,5.1,81,0.00,,,0.00,WUHU216HW,2013-02-03 10:17:00,
2013-02-03 05:22:00,13.5,8.7,29.96,NNW,338,2.0,5.6,81,0.00,,,0.00,WUHU216HW,2013-02-03 10:22:00,
2013-02-03 05:27:00,13.5,8.5,29.97,NW,315,4.3,5.6,80,0.00,,,0.00,WUHU216HW,2013-02-03 10:27:00,
2013-02-03 05:32:00,13.7,8.6,29.97,WNW,293,5.4,5.4,80,0.00,,,0.00,WUHU216HW,2013-02-03 10:32:00,
2013-02-03 05:37:00,13.7,8.6,29.97,WNW,293,4.3,5.6,80,0.00,,,0.00,WUHU216HW,2013-02-03 10:37:00,
2013-02-03 05:42:00,13.9,8.6,29.97,WNW,293,3.6,5.8,79,0.00,,,0.00,WUHU216HW,2013-02-03 10:42:00,
2013-02-03 05:47:00,14.0,8.7,29.97,NW,315,4.0,5.8,79,0.00,,,0.00,WUHU216HW,2013-02-03 10:47:00,
2013-02-03 05:52:00,14.0,8.7,29.97,WNW,293,3.6,5.8,79,0.00,,,0.00,WUHU216HW,2013-02-03 10:52:00,
2013-02-03 05:57:00,14.0,8.7,29.97,NW,315,6.0,6.0,79,0.00,,,0.00,WUHU216HW,2013-02-03 10:57:00,
2013-02-03 06:02:00,14.0,8.7,29.97,NW,315,1.8,6.0,79,0.00,,,0.00,WUHU216HW,2013-02-03 11:02:00,
2013-02-03 06:07:00,14.0,8.7,29.97,WNW,293,1.1,4.7,79,0.00,,,0.00,WUHU216HW,2013-02-03 11:07:00,
2013-02-03 06:12:00,14.0,8.7,29.97,NW,315,2.2,4.7,79,0.00,,,0.00,WUHU216HW,2013-02-03 11:12:00,
2013-02-03 06:17:00,14.0,8.7,29.97,NW,315,4.0,6.3,79,0.00,,,0.00,WUHU216HW,2013-02-03 11:17:00,
2013-02-03 06:22:00,14.2,8.9,29.97,WSW,248,2.5,6.3,79,0.00,,,0.00,WUHU216HW,2013-02-03 11:22:00,
2013-02-03 06:27:00,14.2,8.9,29.97,West,270,3.8,6.3,79,0.00,,,0.00,WUHU216HW,2013-02-03 11:27:00,
2013-02-03 06:32:00,14.2,8.9,29.97,WNW,293,4.5,7.6,79,0.00,,,0.00,WUHU216HW,2013-02-03 11:32:00,
2013-02-03 06:37:00,14.4,9.1,29.97,West,270,9.6,9.6,79,0.00,,,0.00,WUHU216HW,2013-02-03 11:37:00,
2013-02-03 06:42:00,14.4,9.1,29.97,NW,315,6.3,9.6,79,0.00,,,0.00,WUHU216HW,2013-02-03 11:42:00,
2013-02-03 06:47:00,14.4,9.1,29.97,WNW,293,4.0,6.3,79,0.00,,,0.00,WUHU216HW,2013-02-03 11:47:00,
2013-02-03 06:52:00,14.6,9.3,29.97,West,270,4.0,9.2,79,0.00,,,0.00,WUHU216HW,2013-02-03 11:52:00,
2013-02-03 06:57:00,14.6,9.3,29.97,WNW,293,4.7,9.2,79,0.00,,,0.00,WUHU216HW,2013-02-03 11:57:00,
2013-02-03 07:02:00,14.8,9.5,29.97,NW,315,2.5,8.7,79,0.00,,,0.00,WUHU216HW,2013-02-03 12:02:00,
2013-02-03 07:07:00,14.8,9.7,29.97,WNW,293,7.4,8.7,80,0.00,,,0.00,WUHU216HW,2013-02-03 12:07:00,
2013-02-03 07:12:00,14.9,9.9,29.97,NW,315,6.9,9.8,80,0.00,,,0.00,WUHU216HW,2013-02-03 12:12:00,
2013-02-03 07:17:00,14.9,9.9,29.97,WNW,293,7.2,9.8,80,0.00,,,0.00,WUHU216HW,2013-02-03 12:17:00,
2013-02-03 07:22:00,14.9,10.2,29.98,NNW,338,4.3,8.5,81,0.00,,,0.00,WUHU216HW,2013-02-03 12:22:00,
2013-02-03 07:27:00,14.9,10.2,29.98,West,270,2.0,9.2,81,0.00,,,0.00,WUHU216HW,2013-02-03 12:27:00,
2013-02-03 07:32:00,15.1,10.4,29.98,WNW,293,6.7,9.2,81,0.00,,,0.00,WUHU216HW,2013-02-03 12:32:00,
2013-02-03 07:37:00,15.1,10.4,29.97,WNW,293,5.8,6.7,81,0.00,,,0.00,WUHU216HW,2013-02-03 12:37:00,
2013-02-03 07:42:00,15.1,10.4,29.98,WNW,293,4.3,11.2,81,0.00,,,0.00,WUHU216HW,2013-02-03 12:42:00,
2013-02-03 07:47:00,15.3,10.5,29.98,WNW,293,4.5,11.2,81,0.00,,,0.00,WUHU216HW,2013-02-03 12:47:00,
2013-02-03 07:52:00,15.3,10.5,29.99,WNW,293,2.7,9.4,81,0.00,,,0.00,WUHU216HW,2013-02-03 12:52:00,
2013-02-03 07:57:00,15.5,10.7,29.99,WNW,293,4.5,9.4,81,0.00,,,0.00,WUHU216HW,2013-02-03 12:57:00,
2013-02-03 08:02:00,15.5,10.7,29.99,WSW,248,4.0,6.9,81,0.00,,,0.00,WUHU216HW,2013-02-03 13:02:00,
2013-02-03 08:07:00,15.5,10.7,29.99,WSW,248,4.7,8.3,81,0.00,,,0.00,WUHU216HW,2013-02-03 13:07:00,
2013-02-03 08:12:00,15.7,10.9,29.99,NNW,338,3.1,9.6,81,0.00,,,0.00,WUHU216HW,2013-02-03 13:12:00,
2013-02-03 08:17:00,15.7,10.9,29.99,NW,315,4.7,9.6,81,0.00,,,0.00,WUHU216HW,2013-02-03 13:17:00,
2013-02-03 08:22:00,15.7,10.9,30.00,West,270,2.9,8.1,81,0.00,,,0.00,WUHU216HW,2013-02-03 13:22:00,
2013-02-03 08:27:00,15.8,10.8,30.00,NW,315,7.4,9.6,80,0.00,,,0.00,WUHU216HW,2013-02-03 13:27:00,
2013-02-03 08:32:00,15.8,11.1,30.00,West,270,4.7,9.6,81,0.00,,,0.00,WUHU216HW,2013-02-03 13:32:00,
2013-02-03 08:37:00,16.0,11.3,30.00,NW,315,3.8,6.0,81,0.00,,,0.00,WUHU216HW,2013-02-03 13:37:00,
2013-02-03 08:42:00,16.0,11.3,30.00,NW,315,2.5,5.8,81,0.00,,,0.00,WUHU216HW,2013-02-03 13:42:00,
2013-02-03 08:47:00,16.2,11.3,30.00,West,270,3.4,5.4,81,0.00,,,0.00,WUHU216HW,2013-02-03 13:47:00,
2013-02-03 08:52:00,16.2,11.3,30.00,NW,315,3.1,4.3,81,0.00,,,0.00,WUHU216HW,2013-02-03 13:52:00,
2013-02-03 08:57:00,16.4,11.5,30.00,West,270,4.7,4.7,81,0.00,,,0.00,WUHU216HW,2013-02-03 13:57:00,
2013-02-03 09:02:00,16.6,11.7,30.00,WNW,293,4.7,8.5,81,0.00,,,0.00,WUHU216HW,2013-02-03 14:02:00,
2013-02-03 09:07:00,16.7,11.9,30.00,WNW,293,4.5,8.5,81,0.00,,,0.00,WUHU216HW,2013-02-03 14:07:00,
2013-02-03 09:12:00,16.9,12.1,30.00,West,270,6.3,7.4,81,0.00,,,0.00,WUHU216HW,2013-02-03 14:12:00,
2013-02-03 09:17:00,16.9,12.1,30.00,WNW,293,4.3,6.3,81,0.00,,,0.00,WUHU216HW,2013-02-03 14:17:00,
2013-02-03 09:22:00,17.1,12.3,30.00,NNW,338,2.5,7.2,81,0.00,,,0.00,WUHU216HW,2013-02-03 14:22:00,
2013-02-03 09:27:00,17.1,12.3,30.00,WNW,293,4.0,7.4,81,0.00,,,0.00,WUHU216HW,2013-02-03 14:27:00,
2013-02-03 09:32:00,17.5,12.5,30.00,WNW,293,4.5,8.5,81,0.00,,,0.00,WUHU216HW,2013-02-03 14:32:00,
2013-02-03 09:37:00,17.6,12.7,30.00,WNW,293,2.9,8.5,81,0.00,,,0.00,WUHU216HW,2013-02-03 14:37:00,
2013-02-03 09:42:00,17.6,12.4,30.00,NNW,338,4.7,5.8,80,0.00,,,0.00,WUHU216HW,2013-02-03 14:42:00,
2013-02-03 09:47:00,17.8,12.6,30.00,SW,225,4.3,10.3,80,0.00,,,0.00,WUHU216HW,2013-02-03 14:47:00,
2013-02-03 09:52:00,18.2,13.0,30.00,West,270,11.0,11.4,80,0.00,,,0.00,WUHU216HW,2013-02-03 14:52:00,
2013-02-03 09:57:00,18.4,13.4,29.99,West,270,3.4,11.4,81,0.00,,,0.00,WUHU216HW,2013-02-03 14:57:00,
2013-02-03 10:02:00,18.4,13.1,29.99,WSW,248,4.0,6.5,80,0.00,,,0.00,WUHU216HW,2013-02-03 15:02:00,
2013-02-03 10:07:00,18.5,13.3,29.99,NW,315,5.1,7.6,80,0.00,,,0.00,WUHU216HW,2013-02-03 15:07:00,
2013-02-03 10:12:00,18.4,12.9,29.99,NW,315,4.9,10.3,79,0.00,,,0.00,WUHU216HW,2013-02-03 15:12:00,
2013-02-03 10:17:00,18.5,13.3,30.00,WNW,293,6.3,10.3,80,0.00,,,0.00,WUHU216HW,2013-02-03 15:17:00,
2013-02-03 10:22:00,18.7,13.2,30.00,NW,315,4.3,9.4,79,0.00,,,0.00,WUHU216HW,2013-02-03 15:22:00,
2013-02-03 10:27:00,19.1,13.6,30.00,WNW,293,11.0,11.0,79,0.00,,,0.00,WUHU216HW,2013-02-03 15:27:00,
2013-02-03 10:32:00,19.1,13.6,30.00,WNW,293,7.4,11.0,79,0.00,,,0.00,WUHU216HW,2013-02-03 15:32:00,
2013-02-03 10:37:00,19.4,14.0,30.00,WSW,248,4.9,9.8,79,0.00,,,0.00,WUHU216HW,2013-02-03 15:37:00,
2013-02-03 10:42:00,19.8,14.3,30.00,NNW,338,5.4,9.8,79,0.00,,,0.00,WUHU216HW,2013-02-03 15:42:00,
2013-02-03 10:47:00,19.8,14.0,30.00,WNW,293,3.8,7.2,78,0.00,,,0.00,WUHU216HW,2013-02-03 15:47:00,
2013-02-03 10:52:00,20.2,14.3,29.99,WNW,293,4.0,7.2,78,0.00,,,0.00,WUHU216HW,2013-02-03 15:52:00,
2013-02-03 10:57:00,20.2,14.3,29.99,NNW,338,1.8,4.0,78,0.00,,,0.00,WUHU216HW,2013-02-03 15:57:00,
2013-02-03 11:02:00,20.2,14.3,29.99,NNW,338,4.7,6.7,78,0.00,,,0.00,WUHU216HW,2013-02-03 16:02:00,
2013-02-03 11:07:00,20.2,14.3,29.99,WNW,293,6.9,6.9,78,0.00,,,0.00,WUHU216HW,2013-02-03 16:07:00,
2013-02-03 11:12:00,20.7,14.9,29.99,SW,225,8.1,8.3,78,0.00,,,0.00,WUHU216HW,2013-02-03 16:12:00,
2013-02-03 11:17:00,20.9,15.0,29.99,WSW,248,6.9,9.8,78,0.00,,,0.00,WUHU216HW,2013-02-03 16:17:00,
2013-02-03 11:22:00,20.9,15.0,30.00,WNW,293,9.2,9.8,78,0.00,,,0.00,WUHU216HW,2013-02-03 16:22:00,
2013-02-03 11:27:00,20.7,14.9,30.00,NW,315,3.4,10.5,78,0.00,,,0.00,WUHU216HW,2013-02-03 16:27:00,
2013-02-03 11:32:00,20.7,14.9,30.00,NNW,338,3.4,10.5,78,0.00,,,0.00,WUHU216HW,2013-02-03 16:32:00,
2013-02-03 11:37:00,20.9,15.0,30.00,NNW,338,2.9,7.2,78,0.00,,,0.00,WUHU216HW,2013-02-03 16:37:00,
2013-02-03 11:42:00,21.1,15.2,30.00,WNW,293,6.9,7.2,78,0.00,,,0.00,WUHU216HW,2013-02-03 16:42:00,
2013-02-03 11:47:00,21.1,15.2,30.00,WNW,293,4.7,6.9,78,0.00,,,0.00,WUHU216HW,2013-02-03 16:47:00,
2013-02-03 11:52:00,21.1,15.2,30.00,North,0,2.9,6.3,78,0.00,,,0.00,WUHU216HW,2013-02-03 16:52:00,
2013-02-03 11:57:00,21.2,15.8,30.00,WNW,293,8.1,9.8,79,0.00,,,0.00,WUHU216HW,2013-02-03 16:57:00,
2013-02-03 12:02:00,21.6,15.8,30.00,NNW,338,7.6,9.8,78,0.00,,,0.00,WUHU216HW,2013-02-03 17:02:00,
2013-02-03 12:07:00,21.6,15.8,30.00,WNW,293,10.3,10.3,78,0.00,,,0.00,WUHU216HW,2013-02-03 17:07:00,
2013-02-03 12:12:00,21.6,15.5,30.00,WNW,293,8.7,10.3,77,0.00,,,0.00,WUHU216HW,2013-02-03 17:12:00,
2013-02-03 12:17:00,21.6,15.8,30.00,WNW,293,4.0,8.7,78,0.00,,,0.00,WUHU216HW,2013-02-03 17:17:00,
2013-02-03 12:22:00,22.0,16.1,30.00,WNW,293,8.1,8.1,78,0.00,,,0.00,WUHU216HW,2013-02-03 17:22:00,
2013-02-03 12:27:00,22.1,16.3,30.01,West,270,4.3,14.5,78,0.00,,,0.00,WUHU216HW,2013-02-03 17:27:00,
2013-02-03 12:32:00,22.0,15.9,30.01,NNW,338,8.1,14.5,77,0.00,,,0.00,WUHU216HW,2013-02-03 17:32:00,
2013-02-03 12:37:00,22.0,16.1,30.01,NW,315,7.6,14.3,78,0.00,,,0.00,WUHU216HW,2013-02-03 17:37:00,
2013-02-03 12:42:00,22.0,16.1,30.00,NW,315,6.0,8.7,78,0.00,,,0.00,WUHU216HW,2013-02-03 17:42:00,
2013-02-03 12:47:00,22.0,16.1,30.00,West,270,5.6,10.5,78,0.00,,,0.00,WUHU216HW,2013-02-03 17:47:00,
2013-02-03 12:52:00,22.3,16.5,30.00,WNW,293,4.7,10.5,78,0.00,,,0.00,WUHU216HW,2013-02-03 17:52:00,
2013-02-03 12:57:00,22.1,16.7,30.00,NW,315,6.9,6.9,79,0.00,,,0.00,WUHU216HW,2013-02-03 17:57:00,
2013-02-03 13:02:00,22.3,16.8,30.00,WSW,248,8.5,8.5,79,0.00,,,0.00,WUHU216HW,2013-02-03 18:02:00,
2013-02-03 13:05:00,22.3,16.8,30.00,WSW,248,5.4,5.4,79,0.00,,,0.00,WUHU216HW,2013-02-03 18:05:00,
2013-02-03 13:07:00,22.3,16.8,30.00,WSW,248,5.4,8.5,79,0.00,,,0.00,WUHU216HW,2013-02-03 18:07:00,
2013-02-03 13:12:00,22.3,16.8,30.00,WSW,248,5.4,7.6,79,0.00,,,0.00,WUHU216HW,2013-02-03 18:12:00,
2013-02-03 13:35:00,22.9,17.6,30.01,WNW,293,10.7,10.7,80,0.00,,,0.00,WUHU216HW,2013-02-03 18:35:00,
2013-02-03 13:40:00,23.0,18.1,30.01,WNW,293,4.0,10.7,81,0.00,,,0.00,WUHU216HW,2013-02-03 18:40:00,
2013-02-03 13:45:00,23.2,18.3,30.01,SW,225,8.7,14.1,81,0.00,,,0.00,WUHU216HW,2013-02-03 18:45:00,
2013-02-03 13:50:00,23.2,18.3,30.02,NW,315,5.6,14.1,81,0.00,,,0.00,WUHU216HW,2013-02-03 18:50:00,
2013-02-03 13:55:00,23.4,18.7,30.01,NW,315,5.8,12.5,82,0.00,,,0.00,WUHU216HW,2013-02-03 18:55:00,
2013-02-03 14:00:00,23.4,18.7,30.01,WNW,293,10.5,12.1,82,0.00,,,0.00,WUHU216HW,2013-02-03 19:00:00,
2013-02-03 14:05:00,23.4,18.7,30.01,West,270,8.1,12.1,82,0.00,,,0.00,WUHU216HW,2013-02-03 19:05:00,
2013-02-03 14:10:00,23.4,18.7,30.02,NNW,338,7.6,8.9,82,0.00,,,0.00,WUHU216HW,2013-02-03 19:10:00,
2013-02-03 14:15:00,23.4,18.5,30.01,West,270,7.8,9.8,81,0.00,,,0.00,WUHU216HW,2013-02-03 19:15:00,
2013-02-03 14:20:00,23.4,18.5,30.01,West,270,8.5,11.2,81,0.00,,,0.00,WUHU216HW,2013-02-03 19:20:00,
2013-02-03 14:25:00,23.8,18.8,30.01,NW,315,3.8,11.4,81,0.00,,,0.00,WUHU216HW,2013-02-03 19:25:00,
2013-02-03 14:30:00,24.1,19.2,30.01,NW,315,4.0,11.4,81,0.00,,,0.00,WUHU216HW,2013-02-03 19:30:00,
2013-02-03 14:35:00,24.1,18.9,30.01,WSW,248,9.8,9.8,80,0.00,,,0.00,WUHU216HW,2013-02-03 19:35:00,
2013-02-03 14:40:00,24.1,18.9,30.01,WSW,248,9.8,9.8,80,0.00,,,0.00,WUHU216HW,2013-02-03 19:40:00,
2013-02-03 15:00:00,24.5,19.5,30.02,WSW,248,7.6,7.6,81,0.00,,,0.00,WUHU216HW,2013-02-03 20:00:00,
2013-02-03 15:05:00,24.8,19.9,30.02,NNW,338,4.0,10.3,81,0.00,,,0.00,WUHU216HW,2013-02-03 20:05:00,
2013-02-03 15:10:00,24.8,19.6,30.02,WNW,293,11.0,11.0,80,0.00,,,0.00,WUHU216HW,2013-02-03 20:10:00,
2013-02-03 15:15:00,24.8,19.6,30.02,WNW,293,11.0,11.0,80,0.00,,,0.00,WUHU216HW,2013-02-03 20:15:00,
2013-02-03 15:35:00,25.4,20.1,30.03,WNW,293,8.1,8.1,80,0.00,,,0.00,WUHU216HW,2013-02-03 20:35:00,
2013-02-03 15:40:00,25.2,20.0,30.03,WSW,248,10.1,10.1,80,0.00,,,0.00,WUHU216HW,2013-02-03 20:40:00,
2013-02-03 15:45:00,25.2,20.3,30.04,NNW,338,5.4,18.8,81,0.00,,,0.00,WUHU216HW,2013-02-03 20:45:00,
2013-02-03 15:50:00,25.2,20.3,30.04,NW,315,6.3,18.8,81,0.00,,,0.00,WUHU216HW,2013-02-03 20:50:00,
2013-02-03 15:55:00,25.2,20.3,30.04,WNW,293,6.0,13.4,81,0.00,,,0.00,WUHU216HW,2013-02-03 20:55:00,
2013-02-03 16:00:00,25.2,19.6,30.04,West,270,7.2,17.0,79,0.00,,,0.00,WUHU216HW,2013-02-03 21:00:00,
2013-02-03 16:05:00,25.2,19.3,30.04,West,270,8.3,17.0,78,0.00,,,0.00,WUHU216HW,2013-02-03 21:05:00,
2013-02-03 16:10:00,25.4,18.8,30.05,NW,315,10.3,16.3,76,0.00,,,0.00,WUHU216HW,2013-02-03 21:10:00,
2013-02-03 16:15:00,25.2,18.6,30.05,North,0,7.4,17.4,76,0.00,,,0.00,WUHU216HW,2013-02-03 21:15:00,
2013-02-03 16:20:00,25.0,18.8,30.05,NW,315,5.6,17.4,77,0.00,,,0.00,WUHU216HW,2013-02-03 21:20:00,
2013-02-03 16:25:00,25.0,19.2,30.05,SW,225,15.7,15.7,78,0.00,,,0.00,WUHU216HW,2013-02-03 21:25:00,
2013-02-03 16:30:00,25.0,19.4,30.05,NNW,338,9.2,24.8,79,0.00,,,0.00,WUHU216HW,2013-02-03 21:30:00,
2013-02-03 16:35:00,24.8,19.6,30.05,NW,315,13.0,24.8,80,0.00,,,0.00,WUHU216HW,2013-02-03 21:35:00,
2013-02-03 16:40:00,24.8,19.9,30.05,NNW,338,7.6,15.0,81,0.00,,,0.00,WUHU216HW,2013-02-03 21:40:00,
2013-02-03 16:45:00,24.8,19.6,30.06,NW,315,8.9,18.1,80,0.00,,,0.00,WUHU216HW,2013-02-03 21:45:00,
2013-02-03 16:50:00,25.0,19.2,30.05,NW,315,8.3,18.1,78,0.00,,,0.00,WUHU216HW,2013-02-03 21:50:00,
2013-02-03 16:55:00,25.0,19.2,30.05,WNW,293,10.5,10.7,78,0.00,,,0.00,WUHU216HW,2013-02-03 21:55:00,
2013-02-03 17:00:00,25.0,19.2,30.06,NW,315,8.9,10.5,78,0.00,,,0.00,WUHU216HW,2013-02-03 22:00:00,
2013-02-03 17:05:00,24.8,18.6,30.06,WNW,293,15.2,15.2,77,0.00,,,0.00,WUHU216HW,2013-02-03 22:05:00,
2013-02-03 17:10:00,24.7,18.8,30.06,WNW,293,6.9,15.2,78,0.00,,,0.00,WUHU216HW,2013-02-03 22:10:00,
2013-02-03 17:15:00,24.8,18.6,30.06,NW,315,11.4,11.4,77,0.00,,,0.00,WUHU216HW,2013-02-03 22:15:00,
2013-02-03 17:20:00,24.8,18.6,30.06,NW,315,8.9,11.4,77,0.00,,,0.00,WUHU216HW,2013-02-03 22:20:00,
2013-02-03 17:25:00,24.8,18.6,30.06,WNW,293,13.0,13.6,77,0.00,,,0.00,WUHU216HW,2013-02-03 22:25:00,
2013-02-03 17:30:00,24.7,18.8,30.06,NNW,338,6.5,14.3,78,0.00,,,0.00,WUHU216HW,2013-02-03 22:30:00,
2013-02-03 17:35:00,24.5,18.0,30.06,WNW,293,9.6,14.3,76,0.00,,,0.00,WUHU216HW,2013-02-03 22:35:00,
2013-02-03 17:40:00,24.1,17.3,30.07,NW,315,6.9,13.2,75,0.00,,,0.00,WUHU216HW,2013-02-03 22:40:00,
2013-02-03 17:45:00,24.1,17.3,30.07,WNW,293,7.6,13.6,75,0.00,,,0.00,WUHU216HW,2013-02-03 22:45:00,
2013-02-03 17:50:00,23.9,16.8,30.07,West,270,10.3,13.6,74,0.00,,,0.00,WUHU216HW,2013-02-03 22:50:00,
2013-02-03 17:55:00,23.8,17.0,30.07,WNW,293,5.4,12.5,75,0.00,,,0.00,WUHU216HW,2013-02-03 22:55:00,
2013-02-03 18:00:00,23.6,16.8,30.08,NNW,338,4.3,13.9,75,0.00,,,0.00,WUHU216HW,2013-02-03 23:00:00,
2013-02-03 18:05:00,23.6,16.8,30.07,WNW,293,7.4,13.9,75,0.00,,,0.00,WUHU216HW,2013-02-03 23:05:00,
2013-02-03 18:10:00,23.4,16.7,30.07,NW,315,6.3,12.5,75,0.00,,,0.00,WUHU216HW,2013-02-03 23:10:00,
2013-02-03 18:11:00,23.4,16.7,30.07,WSW,248,4.0,4.0,75,0.00,,,0.00,WUHU216HW,2013-02-03 23:11:00,
2013-02-03 18:15:00,23.4,16.7,30.07,WSW,248,4.0,12.5,75,0.00,,,0.00,WUHU216HW,2013-02-03 23:15:00,
2013-02-03 18:20:00,23.4,16.7,30.07,WSW,248,4.0,4.0,75,0.00,,,0.00,WUHU216HW,2013-02-03 23:20:00,
2013-02-03 18:41:00,22.7,16.6,30.07,West,270,5.6,5.6,77,0.00,,,0.00,WUHU216HW,2013-02-03 23:41:00,
2013-02-03 18:46:00,22.7,16.6,30.07,WNW,293,4.7,5.6,77,0.00,,,0.00,WUHU216HW,2013-02-03 23:46:00,
2013-02-03 18:51:00,22.7,16.6,30.07,West,270,3.4,7.6,77,0.00,,,0.00,WUHU216HW,2013-02-03 23:51:00,
2013-02-03 18:56:00,22.7,16.6,30.07,WNW,293,7.2,10.5,77,0.00,,,0.00,WUHU216HW,2013-02-03 23:56:00,
2013-02-03 19:01:00,22.5,16.4,30.08,WNW,293,6.7,10.5,77,0.00,,,0.00,WUHU216HW,2013-02-04 00:01:00,
2013-02-03 19:06:00,22.5,16.4,30.08,WNW,293,5.4,8.1,77,0.00,,,0.00,WUHU216HW,2013-02-04 00:06:00,
2013-02-03 19:11:00,22.3,16.2,30.08,West,270,4.9,8.1,77,0.00,,,0.00,WUHU216HW,2013-02-04 00:11:00,
2013-02-03 19:16:00,22.1,16.3,30.08,WNW,293,6.3,6.3,78,0.00,,,0.00,WUHU216HW,2013-02-04 00:16:00,
2013-02-03 19:21:00,22.1,16.3,30.08,NW,315,7.2,7.2,78,0.00,,,0.00,WUHU216HW,2013-02-04 00:21:00,
2013-02-03 19:26:00,22.0,16.1,30.09,WNW,293,3.8,11.6,78,0.00,,,0.00,WUHU216HW,2013-02-04 00:26:00,
2013-02-03 19:31:00,22.0,16.1,30.09,WNW,293,6.3,11.6,78,0.00,,,0.00,WUHU216HW,2013-02-04 00:31:00,
2013-02-03 19:36:00,22.0,16.1,30.09,WNW,293,3.6,9.4,78,0.00,,,0.00,WUHU216HW,2013-02-04 00:36:00,
2013-02-03 19:41:00,22.0,16.1,30.09,West,270,4.7,9.4,78,0.00,,,0.00,WUHU216HW,2013-02-04 00:41:00,
2013-02-03 19:46:00,21.8,15.9,30.09,WSW,248,3.4,6.9,78,0.00,,,0.00,WUHU216HW,2013-02-04 00:46:00,
2013-02-03 19:51:00,21.6,15.8,30.08,WNW,293,3.4,6.3,78,0.00,,,0.00,WUHU216HW,2013-02-04 00:51:00,
2013-02-03 19:56:00,21.4,15.6,30.08,SW,225,1.1,4.9,78,0.00,,,0.00,WUHU216HW,2013-02-04 00:56:00,
2013-02-03 20:01:00,21.2,15.4,30.08,SW,225,2.9,4.7,78,0.00,,,0.00,WUHU216HW,2013-02-04 01:01:00,
2013-02-03 20:06:00,21.1,15.2,30.08,SSW,203,0.9,4.0,78,0.00,,,0.00,WUHU216HW,2013-02-04 01:06:00,
2013-02-03 20:11:00,20.9,15.0,30.08,SW,225,2.5,4.0,78,0.00,,,0.00,WUHU216HW,2013-02-04 01:11:00,
2013-02-03 20:16:00,20.7,14.9,30.08,SSW,203,1.3,3.6,78,0.00,,,0.00,WUHU216HW,2013-02-04 01:16:00,
2013-02-03 20:21:00,20.5,14.7,30.08,SSW,203,1.6,2.5,78,0.00,,,0.00,WUHU216HW,2013-02-04 01:21:00,
2013-02-03 20:26:00,20.3,14.5,30.08,South,180,0.9,1.6,78,0.00,,,0.00,WUHU216HW,2013-02-04 01:26:00,
2013-02-03 20:31:00,20.0,14.1,30.08,WSW,248,1.1,2.5,78,0.00,,,0.00,WUHU216HW,2013-02-04 01:31:00,
2013-02-03 20:36:00,19.8,14.0,30.08,South,180,1.1,2.5,78,0.00,,,0.00,WUHU216HW,2013-02-04 01:36:00,
2013-02-03 20:41:00,19.8,14.3,30.08,SSW,203,1.1,1.6,79,0.00,,,0.00,WUHU216HW,2013-02-04 01:41:00,
2013-02-03 20:46:00,19.6,14.1,30.08,SSW,203,0.4,1.6,79,0.00,,,0.00,WUHU216HW,2013-02-04 01:46:00,
2013-02-03 20:51:00,19.4,14.0,30.08,SSW,203,0.4,1.3,79,0.00,,,0.00,WUHU216HW,2013-02-04 01:51:00,
2013-02-03 20:56:00,19.4,14.2,30.08,SSW,203,1.6,1.6,80,0.00,,,0.00,WUHU216HW,2013-02-04 01:56:00,
2013-02-03 21:01:00,19.6,14.4,30.08,SSW,203,0.9,2.2,80,0.00,,,0.00,WUHU216HW,2013-02-04 02:01:00,
2013-02-03 21:06:00,19.8,14.6,30.08,SSW,203,0.4,2.2,80,0.00,,,0.00,WUHU216HW,2013-02-04 02:06:00,
2013-02-03 21:11:00,19.8,14.6,30.08,WSW,248,0.7,2.7,80,0.00,,,0.00,WUHU216HW,2013-02-04 02:11:00,
2013-02-03 21:16:00,20.0,14.8,30.08,SW,225,2.0,2.7,80,0.00,,,0.00,WUHU216HW,2013-02-04 02:16:00,
2013-02-03 21:21:00,20.2,15.2,30.08,SSW,203,2.9,3.8,81,0.00,,,0.00,WUHU216HW,2013-02-04 02:21:00,
2013-02-03 21:26:00,20.5,15.6,30.08,SW,225,4.0,5.4,81,0.00,,,0.00,WUHU216HW,2013-02-04 02:26:00,
2013-02-03 21:31:00,20.5,15.6,30.08,SSW,203,4.7,5.4,81,0.00,,,0.00,WUHU216HW,2013-02-04 02:31:00,
2013-02-03 21:36:00,20.7,15.8,30.08,SSW,203,6.3,6.3,81,0.00,,,0.00,WUHU216HW,2013-02-04 02:36:00,
2013-02-03 21:41:00,20.9,15.9,30.08,South,180,3.4,7.6,81,0.00,,,0.00,WUHU216HW,2013-02-04 02:41:00,
2013-02-03 21:46:00,20.9,15.9,30.08,West,270,4.0,7.6,81,0.00,,,0.00,WUHU216HW,2013-02-04 02:46:00,
2013-02-03 21:51:00,20.9,15.9,30.08,South,180,3.4,5.8,81,0.00,,,0.00,WUHU216HW,2013-02-04 02:51:00,
2013-02-03 21:56:00,20.9,15.9,30.08,SSW,203,2.7,5.6,81,0.00,,,0.00,WUHU216HW,2013-02-04 02:56:00,
2013-02-03 22:01:00,20.9,15.9,30.08,SW,225,3.8,5.4,81,0.00,,,0.00,WUHU216HW,2013-02-04 03:01:00,
2013-02-03 22:06:00,20.9,15.9,30.09,SW,225,4.0,4.9,81,0.00,,,0.00,WUHU216HW,2013-02-04 03:06:00,
2013-02-03 22:11:00,20.9,15.9,30.09,WSW,248,5.1,5.1,81,0.00,,,0.00,WUHU216HW,2013-02-04 03:11:00,
2013-02-03 22:16:00,20.9,15.7,30.09,SW,225,5.4,5.4,80,0.00,,,0.00,WUHU216HW,2013-02-04 03:16:00,
2013-02-03 22:21:00,20.9,15.7,30.09,SW,225,4.3,6.0,80,0.00,,,0.00,WUHU216HW,2013-02-04 03:21:00,
2013-02-03 22:26:00,20.9,15.7,30.08,SW,225,0.4,6.0,80,0.00,,,0.00,WUHU216HW,2013-02-04 03:26:00,
2013-02-03 22:31:00,20.7,15.5,30.08,South,180,1.1,4.3,80,0.00,,,0.00,WUHU216HW,2013-02-04 03:31:00,
2013-02-03 22:36:00,20.5,15.3,30.09,SW,225,4.5,4.5,80,0.00,,,0.00,WUHU216HW,2013-02-04 03:36:00,
2013-02-03 22:41:00,20.5,15.3,30.09,SSW,203,1.6,4.7,80,0.00,,,0.00,WUHU216HW,2013-02-04 03:41:00,
2013-02-03 22:46:00,20.5,15.3,30.09,SW,225,2.5,4.9,80,0.00,,,0.00,WUHU216HW,2013-02-04 03:46:00,
2013-02-03 22:51:00,20.5,15.3,30.09,SW,225,2.5,4.9,80,0.00,,,0.00,WUHU216HW,2013-02-04 03:51:00,
2013-02-03 22:56:00,20.5,15.3,30.09,SW,225,2.5,4.3,80,0.00,,,0.00,WUHU216HW,2013-02-04 03:56:00,
2013-02-03 23:01:00,20.7,15.5,30.09,SW,225,2.5,4.5,80,0.00,,,0.00,WUHU216HW,2013-02-04 04:01:00,
2013-02-03 23:06:00,20.9,15.7,30.09,SSW,203,0.9,4.5,80,0.00,,,0.00,WUHU216HW,2013-02-04 04:06:00,
2013-02-03 23:11:00,20.9,15.9,30.08,SSW,203,2.5,4.3,81,0.00,,,0.00,WUHU216HW,2013-02-04 04:11:00,
2013-02-03 23:16:00,21.2,16.3,30.08,SSW,203,2.0,4.3,81,0.00,,,0.00,WUHU216HW,2013-02-04 04:16:00,
2013-02-03 23:21:00,21.4,16.2,30.09,SW,225,1.8,4.0,80,0.00,,,0.00,WUHU216HW,2013-02-04 04:21:00,
2013-02-03 23:26:00,21.6,16.4,30.09,South,180,2.7,4.0,80,0.00,,,0.00,WUHU216HW,2013-02-04 04:26:00,
2013-02-03 23:31:00,21.6,16.4,30.09,WSW,248,1.8,5.1,80,0.00,,,0.00,WUHU216HW,2013-02-04 04:31:00,
2013-02-03 23:36:00,21.8,16.6,30.09,SSW,203,3.1,5.1,80,0.00,,,0.00,WUHU216HW,2013-02-04 04:36:00,
2013-02-03 23:41:00,21.8,16.6,30.09,WSW,248,1.8,5.4,80,0.00,,,0.00,WUHU216HW,2013-02-04 04:41:00,
2013-02-03 23:46:00,21.6,16.1,30.09,SSW,203,3.4,5.4,79,0.00,,,0.00,WUHU216HW,2013-02-04 04:46:00,
2013-02-03 23:51:00,21.4,15.9,30.08,South,180,1.3,4.3,79,0.00,,,0.00,WUHU216HW,2013-02-04 04:51:00,
2013-02-03 23:56:00,21.2,15.8,30.08,SSW,203,2.7,2.7,79,0.00,,,0.00,WUHU216HW,2013-02-04 04:56:00,